createdAt,value
2022-11-22T00:00:37.301Z,2.85
2022-11-22T00:03:04.192Z,2.70
2022-11-22T00:05:31.080Z,2.50
2022-11-22T00:07:58.051Z,2.63
2022-11-22T00:10:25.227Z,2.58
2022-11-22T00:12:52.357Z,2.80
2022-11-22T00:15:19.320Z,2.25
2022-11-22T00:17:46.362Z,2.63
2022-11-22T00:20:13.767Z,2.90
2022-11-22T00:22:44.555Z,2.55
2022-11-22T00:25:12.415Z,2.53
2022-11-22T00:27:39.259Z,2.70
2022-11-22T00:30:06.833Z,2.60
2022-11-22T00:32:34.047Z,2.40
2022-11-22T00:35:01.037Z,2.47
2022-11-22T00:37:28.057Z,2.30
2022-11-22T00:39:54.923Z,2.63
2022-11-22T00:42:21.831Z,2.60
2022-11-22T00:44:48.658Z,2.97
2022-11-22T00:47:15.575Z,2.58
2022-11-22T00:49:42.440Z,2.30
2022-11-22T00:52:09.318Z,2.58
2022-11-22T00:54:36.169Z,2.65
2022-11-22T00:57:03.188Z,2.75
2022-11-22T00:59:30.407Z,2.55
2022-11-22T01:01:57.400Z,2.42
2022-11-22T01:04:24.241Z,2.83
2022-11-22T01:06:51.071Z,2.35
2022-11-22T01:09:21.463Z,2.30
2022-11-22T01:11:48.453Z,2.40
2022-11-22T01:14:16.567Z,2.70
2022-11-22T01:16:43.550Z,2.75
2022-11-22T01:19:10.859Z,3.10
2022-11-22T01:21:38.081Z,2.83
2022-11-22T01:24:05.060Z,2.92
2022-11-22T01:26:33.198Z,2.30
2022-11-22T01:29:00.182Z,2.40
2022-11-22T01:31:27.245Z,2.70
2022-11-22T01:33:54.091Z,2.03
2022-11-22T01:36:20.942Z,2.17
2022-11-22T01:38:47.841Z,2.40
2022-11-22T01:41:14.931Z,2.45
2022-11-22T01:43:41.996Z,2.38
2022-11-22T01:46:33.849Z,1.92
2022-11-22T01:49:12.641Z,1.85
2022-11-22T01:51:42.340Z,2.42
2022-11-22T01:54:15.141Z,2.22
2022-11-22T01:56:48.061Z,2.05
2022-11-22T01:59:19.442Z,2.50
2022-11-22T02:01:46.463Z,2.20
2022-11-22T02:04:17.332Z,1.90
2022-11-22T02:06:56.508Z,2.15
2022-11-22T02:09:26.903Z,2.17
2022-11-22T02:11:57.376Z,2.10
2022-11-22T02:14:27.055Z,2.42
2022-11-22T02:16:54.413Z,2.30
2022-11-22T02:19:34.491Z,2.40
2022-11-22T02:22:19.092Z,1.80
2022-11-22T02:25:03.478Z,2.30
2022-11-22T02:27:30.961Z,2.20
2022-11-22T02:29:58.046Z,2.30
2022-11-22T02:32:25.108Z,2.03
2022-11-22T02:34:52.251Z,2.10
2022-11-22T02:37:29.563Z,2.00
2022-11-22T02:40:05.503Z,2.10
2022-11-22T02:42:33.820Z,2.00
2022-11-22T02:45:00.858Z,2.05
2022-11-22T02:47:28.004Z,2.20
2022-11-22T02:49:54.806Z,2.00
2022-11-22T02:52:21.977Z,1.80
2022-11-22T02:54:49.116Z,2.13
2022-11-22T02:57:16.197Z,2.15
2022-11-22T02:59:43.102Z,1.70
2022-11-22T03:02:10.558Z,1.85
2022-11-22T03:04:37.525Z,2.00
2022-11-22T03:07:04.750Z,1.90
2022-11-22T03:09:32.513Z,1.80
2022-11-22T03:12:00.235Z,2.03
2022-11-22T03:14:27.285Z,1.95
2022-11-22T03:16:54.618Z,1.73
2022-11-22T03:19:22.302Z,1.67
2022-11-22T03:21:49.919Z,2.00
2022-11-22T03:24:17.174Z,2.13
2022-11-22T03:26:50.857Z,2.03
2022-11-22T03:29:18.245Z,2.00
2022-11-22T03:31:45.113Z,1.90
2022-11-22T03:34:13.122Z,1.90
2022-11-22T03:36:40.743Z,2.17
2022-11-22T03:39:07.896Z,1.67
2022-11-22T03:41:34.789Z,2.20
2022-11-22T03:44:01.623Z,2.22
2022-11-22T03:46:28.454Z,2.10
2022-11-22T03:48:55.473Z,1.80
2022-11-22T03:51:24.761Z,1.48
2022-11-22T03:53:51.853Z,1.98
2022-11-22T03:56:18.917Z,1.80
2022-11-22T03:58:45.769Z,2.03
2022-11-22T04:01:16.515Z,2.10
2022-11-22T04:03:43.800Z,1.92
2022-11-22T04:06:11.258Z,1.90
2022-11-22T04:08:38.223Z,1.77
2022-11-22T04:11:05.222Z,1.92
2022-11-22T04:13:50.709Z,2.00
2022-11-22T04:16:17.543Z,1.60
2022-11-22T04:18:44.398Z,2.25
2022-11-22T04:21:29.658Z,1.88
2022-11-22T04:24:15.240Z,2.10
2022-11-22T04:26:42.186Z,2.10
2022-11-22T04:29:10.321Z,1.98
2022-11-22T04:31:56.307Z,1.90
2022-11-22T04:34:23.781Z,1.70
2022-11-22T04:36:50.631Z,1.92
2022-11-22T04:39:17.468Z,1.90
2022-11-22T04:41:44.297Z,2.35
2022-11-22T04:44:29.976Z,1.67
2022-11-22T04:46:56.936Z,2.00
2022-11-22T04:49:27.015Z,1.60
2022-11-22T04:52:12.698Z,2.08
2022-11-22T04:54:39.615Z,2.80
2022-11-22T04:57:06.422Z,2.03
2022-11-22T04:59:33.359Z,1.80
2022-11-22T05:02:00.186Z,2.40
2022-11-22T05:04:27.020Z,1.95
2022-11-22T05:06:53.887Z,2.03
2022-11-22T05:09:20.755Z,2.45
2022-11-22T05:11:47.536Z,2.33
2022-11-22T05:14:14.416Z,2.00
2022-11-22T05:16:41.270Z,2.83
2022-11-22T05:19:08.261Z,2.30
2022-11-22T05:21:38.260Z,2.60
2022-11-22T05:24:05.440Z,2.50
2022-11-22T05:26:34.603Z,2.25
2022-11-22T05:29:10.179Z,2.45
2022-11-22T05:31:39.259Z,2.35
2022-11-22T05:34:06.167Z,2.10
2022-11-22T05:36:34.834Z,2.17
2022-11-22T05:39:02.331Z,2.50
2022-11-22T05:41:29.738Z,2.50
2022-11-22T05:43:57.106Z,2.50
2022-11-22T05:46:29.957Z,2.58
2022-11-22T05:48:58.445Z,2.50
2022-11-22T05:51:34.623Z,2.33
2022-11-22T05:54:02.779Z,2.60
2022-11-22T05:56:29.715Z,2.50
2022-11-22T05:58:56.501Z,2.30
2022-11-22T06:01:24.325Z,2.40
2022-11-22T06:03:51.525Z,2.55
2022-11-22T06:06:21.446Z,2.25
2022-11-22T06:08:48.911Z,2.33
2022-11-22T06:11:22.001Z,2.47
2022-11-22T06:13:56.507Z,2.17
2022-11-22T06:16:23.778Z,2.58
2022-11-22T06:18:50.993Z,2.42
2022-11-22T06:21:20.689Z,2.50
2022-11-22T06:23:47.618Z,2.08
2022-11-22T06:26:17.427Z,2.35
2022-11-22T06:28:45.242Z,2.20
2022-11-22T06:31:14.183Z,2.05
2022-11-22T06:33:42.014Z,2.47
2022-11-22T06:36:11.281Z,2.22
2022-11-22T06:38:39.554Z,2.10
2022-11-22T06:41:09.164Z,2.80
2022-11-22T06:43:37.390Z,2.22
2022-11-22T06:46:06.172Z,2.50
2022-11-22T06:48:37.742Z,2.20
2022-11-22T06:51:13.403Z,2.05
2022-11-22T06:53:47.211Z,2.42
2022-11-22T06:56:26.926Z,2.20
2022-11-22T06:58:54.634Z,2.28
2022-11-22T07:01:27.616Z,3.03
2022-11-22T07:03:58.691Z,2.35
2022-11-22T07:06:38.699Z,2.38
2022-11-22T07:09:09.348Z,1.98
2022-11-22T07:11:36.884Z,2.17
2022-11-22T07:14:08.403Z,2.20
2022-11-22T07:16:37.380Z,2.17
2022-11-22T07:19:04.680Z,2.47
2022-11-22T07:21:32.463Z,2.50
2022-11-22T07:23:59.287Z,2.38
2022-11-22T07:26:27.011Z,2.10
2022-11-22T07:28:53.902Z,2.17
2022-11-22T07:31:21.313Z,2.03
2022-11-22T07:33:48.728Z,2.22
2022-11-22T07:36:20.872Z,1.98
2022-11-22T07:38:48.935Z,2.20
2022-11-22T07:41:17.317Z,1.95
2022-11-22T07:43:44.418Z,1.95
2022-11-22T07:46:29.916Z,2.60
2022-11-22T07:48:58.288Z,2.10
2022-11-22T07:51:25.209Z,2.40
2022-11-22T07:53:52.498Z,2.40
2022-11-22T07:56:19.367Z,2.35
2022-11-22T07:58:46.592Z,2.08
2022-11-22T08:01:16.797Z,2.00
2022-11-22T08:03:44.834Z,2.10
2022-11-22T08:06:13.303Z,2.70
2022-11-22T08:08:40.583Z,2.30
2022-11-22T08:11:08.031Z,2.50
2022-11-22T08:13:36.147Z,2.10
2022-11-22T08:16:06.501Z,2.33
2022-11-22T08:18:34.693Z,2.58
2022-11-22T08:21:12.996Z,2.40
2022-11-22T08:23:40.586Z,2.42
2022-11-22T08:26:09.340Z,2.28
2022-11-22T08:28:36.349Z,2.47
2022-11-22T08:31:12.516Z,2.20
2022-11-22T08:33:40.120Z,2.47
2022-11-22T08:36:07.250Z,2.50
2022-11-22T08:38:36.770Z,2.28
2022-11-22T08:41:06.558Z,2.40
2022-11-22T08:43:33.767Z,2.45
2022-11-22T08:46:02.026Z,2.20
2022-11-22T08:48:31.932Z,2.10
2022-11-22T08:51:03.554Z,2.20
2022-11-22T08:53:32.852Z,2.35
2022-11-22T08:56:01.003Z,2.30
2022-11-22T08:58:30.936Z,2.33
2022-11-22T09:01:03.388Z,2.20
2022-11-22T09:03:30.287Z,2.35
2022-11-22T09:09:15.595Z,2.22
2022-11-22T09:11:45.361Z,2.40
2022-11-22T09:14:12.372Z,2.22
2022-11-22T09:16:39.169Z,2.10
2022-11-22T09:19:06.185Z,2.33
2022-11-22T09:21:33.394Z,2.15
2022-11-22T09:24:00.248Z,2.20
2022-11-22T09:26:27.349Z,2.22
2022-11-22T09:28:54.409Z,2.13
2022-11-22T09:31:22.955Z,2.05
2022-11-22T09:33:50.967Z,2.50
2022-11-22T09:36:20.478Z,2.05
2022-11-22T09:38:47.950Z,2.25
2022-11-22T09:41:36.356Z,2.42
2022-11-22T09:44:41.138Z,2.13
2022-11-22T09:47:35.832Z,1.75
2022-11-22T09:50:21.631Z,2.05
2022-11-22T09:52:55.930Z,1.80
2022-11-22T09:55:38.022Z,1.73
2022-11-22T09:58:15.359Z,1.80
2022-11-22T10:00:51.997Z,1.77
2022-11-22T10:03:48.889Z,1.88
2022-11-22T10:06:27.416Z,1.65
2022-11-22T10:09:18.565Z,1.90
2022-11-22T10:11:51.067Z,1.90
2022-11-22T10:14:42.900Z,1.80
2022-11-22T10:17:24.739Z,1.58
2022-11-22T10:20:14.871Z,1.55
2022-11-22T10:22:41.794Z,1.80
2022-11-22T10:25:20.802Z,1.30
2022-11-22T10:27:57.576Z,1.50
2022-11-22T10:30:34.801Z,2.00
2022-11-22T10:33:20.927Z,1.60
2022-11-22T10:36:07.410Z,1.60
2022-11-22T10:38:52.505Z,1.50
2022-11-22T10:41:57.532Z,1.52
2022-11-22T10:44:36.351Z,1.67
2022-11-22T10:47:06.370Z,1.75
2022-11-22T10:49:57.633Z,1.52
2022-11-22T10:52:57.733Z,1.65
2022-11-22T10:55:48.751Z,1.75
2022-11-22T10:58:18.389Z,1.48
2022-11-22T11:00:49.334Z,1.35
2022-11-22T11:03:36.255Z,1.70
2022-11-22T11:06:33.289Z,1.58
2022-11-22T11:12:11.425Z,1.65
2022-11-22T11:14:46.183Z,1.30
2022-11-22T11:17:20.774Z,1.38
2022-11-22T11:19:50.063Z,1.50
2022-11-22T11:22:50.371Z,1.33
2022-11-22T11:25:30.283Z,1.40
2022-11-22T11:28:08.489Z,1.40
2022-11-22T11:31:00.922Z,1.45
2022-11-22T11:33:33.150Z,1.40
2022-11-22T11:36:12.140Z,1.20
2022-11-22T11:38:45.139Z,1.30
2022-11-22T11:41:29.519Z,1.20
2022-11-22T11:44:01.198Z,1.10
2022-11-22T11:46:45.800Z,1.52
2022-11-22T11:49:24.186Z,1.50
2022-11-22T11:51:56.933Z,1.67
2022-11-22T11:54:30.755Z,1.60
2022-11-22T11:57:00.282Z,1.45
2022-11-22T11:59:39.686Z,1.42
2022-11-22T12:02:24.783Z,1.30
2022-11-22T12:05:05.926Z,1.33
2022-11-22T12:07:35.878Z,1.40
2022-11-22T12:10:26.895Z,1.40
2022-11-22T12:13:04.052Z,1.60
2022-11-22T12:15:37.453Z,1.50
2022-11-22T12:18:30.864Z,1.40
2022-11-22T12:21:22.639Z,1.40
2022-11-22T12:24:42.765Z,1.20
2022-11-22T12:27:01.440Z,1.00
2022-11-22T12:29:28.439Z,1.20
2022-11-22T12:32:06.606Z,1.10
2022-11-22T12:35:11.150Z,1.27
2022-11-22T12:37:53.261Z,1.17
2022-11-22T12:40:31.676Z,1.17
2022-11-22T12:43:05.375Z,1.58
2022-11-22T12:45:40.414Z,1.10
2022-11-22T12:48:16.577Z,1.33
2022-11-22T12:51:15.205Z,1.30
2022-11-22T12:53:44.674Z,1.20
2022-11-22T12:56:31.454Z,1.02
2022-11-22T12:59:22.032Z,1.20
2022-11-22T13:01:58.621Z,1.13
2022-11-22T13:04:42.289Z,1.20
2022-11-22T13:07:21.034Z,1.20
2022-11-22T13:10:03.197Z,1.30
2022-11-22T13:12:36.193Z,1.15
2022-11-22T13:15:05.033Z,1.10
2022-11-22T13:17:35.115Z,1.48
2022-11-22T13:20:34.176Z,1.30
2022-11-22T13:23:31.066Z,1.23
2022-11-22T13:26:24.584Z,1.00
2022-11-22T13:28:52.035Z,1.15
2022-11-22T13:31:20.316Z,1.10
2022-11-22T13:33:56.880Z,1.40
2022-11-22T13:36:30.134Z,1.20
2022-11-22T13:39:18.800Z,1.50
2022-11-22T13:42:03.016Z,1.30
2022-11-22T13:44:32.909Z,1.40
2022-11-22T13:47:03.475Z,1.38
2022-11-22T13:49:48.268Z,1.40
2022-11-22T13:52:15.665Z,1.35
2022-11-22T13:54:56.494Z,1.40
2022-11-22T13:57:36.867Z,1.70
2022-11-22T14:00:15.583Z,1.40
2022-11-22T14:02:49.792Z,1.50
2022-11-22T14:05:41.045Z,1.33
2022-11-22T14:08:29.694Z,1.52
2022-11-22T14:10:56.443Z,1.48
2022-11-22T14:13:32.123Z,1.52
2022-11-22T14:16:20.762Z,1.40
2022-11-22T14:19:09.054Z,1.20
2022-11-22T14:22:27.258Z,1.23
2022-11-22T14:25:19.486Z,1.05
2022-11-22T14:27:59.020Z,1.30
2022-11-22T14:30:48.782Z,1.30
2022-11-22T14:33:20.870Z,1.30
2022-11-22T14:36:08.101Z,1.40
2022-11-22T14:38:35.799Z,1.20
2022-11-22T14:41:27.724Z,1.30
2022-11-22T14:44:19.195Z,1.75
2022-11-22T14:47:07.582Z,1.58
2022-11-22T14:49:45.598Z,1.70
2022-11-22T14:52:23.539Z,1.67
2022-11-22T14:54:58.075Z,1.60
2022-11-22T14:57:27.819Z,1.85
2022-11-22T15:00:24.453Z,1.10
2022-11-22T15:03:25.641Z,1.10
2022-11-22T15:09:12.789Z,1.17
2022-11-22T15:09:40.610Z,1.05
2022-11-22T15:12:06.749Z,1.23
2022-11-22T15:14:48.871Z,1.15
2022-11-22T15:57:34.496Z,2.47
2022-11-22T16:00:01.838Z,1.27
2022-11-22T16:02:31.772Z,1.52
2022-11-22T16:06:05.455Z,1.90
2022-11-22T16:07:53.212Z,1.90
2022-11-22T16:10:37.699Z,2.00
2022-11-22T16:13:19.469Z,2.10
2022-11-22T16:16:06.919Z,1.70
2022-11-22T16:18:34.081Z,1.95
2022-11-22T16:21:02.608Z,1.60
2022-11-22T16:23:35.086Z,1.67
2022-11-22T16:26:24.996Z,1.90
2022-11-22T16:28:56.122Z,2.05
2022-11-22T16:31:25.425Z,1.80
2022-11-22T16:33:53.857Z,2.05
2022-11-22T16:36:22.769Z,1.90
2022-11-22T16:38:50.078Z,1.90
2022-11-22T16:41:22.397Z,2.45
2022-11-22T16:44:01.424Z,2.03
2022-11-22T16:46:30.596Z,2.25
2022-11-22T16:48:57.567Z,2.42
2022-11-22T16:51:30.333Z,2.63
2022-11-22T16:54:00.006Z,3.10
2022-11-22T16:56:29.168Z,2.72
2022-11-22T16:58:57.226Z,2.83
2022-11-22T17:01:26.760Z,2.42
2022-11-22T17:03:56.134Z,3.40
2022-11-22T17:06:25.776Z,2.30
2022-11-22T17:08:54.995Z,2.72
2022-11-22T17:11:24.824Z,2.22
2022-11-22T17:13:51.771Z,2.28
2022-11-22T17:16:18.770Z,2.42
2022-11-22T17:18:47.521Z,2.78
2022-11-22T17:21:37.296Z,2.33
2022-11-22T17:24:25.621Z,2.35
2022-11-22T17:26:52.574Z,2.50
2022-11-22T17:29:43.287Z,2.28
2022-11-22T17:32:06.846Z,2.50
2022-11-22T17:34:33.968Z,2.53
2022-11-22T17:37:00.932Z,1.98
2022-11-22T17:39:27.738Z,2.58
2022-11-22T17:41:54.761Z,2.60
2022-11-22T17:44:22.615Z,2.65
2022-11-22T17:46:49.542Z,2.42
2022-11-22T17:49:16.692Z,2.67
2022-11-22T17:51:43.857Z,2.10
2022-11-22T17:54:10.781Z,2.67
2022-11-22T17:56:37.683Z,3.00
2022-11-22T17:59:05.491Z,3.78
2022-11-22T18:01:32.395Z,3.35
2022-11-22T18:03:59.347Z,2.83
2022-11-22T18:06:26.489Z,3.10
2022-11-22T18:08:53.702Z,2.50
2022-11-22T18:11:20.861Z,2.40
2022-11-22T18:13:48.063Z,2.40
2022-11-22T18:16:17.386Z,2.47
2022-11-22T18:19:00.549Z,2.47
2022-11-22T18:21:29.708Z,2.33
2022-11-22T18:24:00.899Z,2.90
2022-11-22T18:26:43.688Z,2.50
2022-11-22T18:32:00.417Z,2.33
2022-11-22T18:34:30.683Z,2.42
2022-11-22T18:39:45.167Z,1.88
2022-11-22T18:42:14.904Z,1.80
2022-11-22T18:44:41.902Z,2.05
2022-11-22T18:47:10.850Z,2.40
2022-11-22T18:49:37.900Z,2.40
2022-11-22T18:52:05.199Z,2.85
2022-11-22T18:54:32.411Z,2.33
2022-11-22T18:56:59.563Z,2.30
2022-11-22T18:59:26.533Z,2.53
2022-11-22T19:01:53.642Z,2.33
2022-11-22T19:04:20.398Z,2.30
2022-11-22T19:06:47.330Z,1.98
2022-11-22T19:09:14.226Z,2.50
2022-11-22T19:11:41.086Z,2.33
2022-11-22T19:14:08.258Z,2.67
2022-11-22T19:16:35.204Z,2.50
2022-11-22T19:19:02.156Z,2.83
2022-11-22T19:21:30.288Z,2.70
2022-11-22T19:23:57.622Z,2.70
2022-11-22T19:26:26.217Z,4.00
2022-11-22T19:28:55.838Z,2.92
2022-11-22T19:31:29.177Z,2.45
2022-11-22T19:33:56.442Z,2.83
2022-11-22T19:36:32.112Z,2.78
2022-11-22T19:39:06.659Z,2.53
2022-11-22T19:41:33.739Z,3.08
2022-11-22T19:44:00.820Z,3.03
2022-11-22T19:46:28.296Z,2.50
2022-11-22T19:48:57.290Z,2.67
2022-11-22T19:51:25.756Z,2.67
2022-11-22T19:53:53.842Z,2.75
2022-11-22T19:56:22.865Z,2.25
2022-11-22T19:58:51.826Z,2.67
2022-11-22T20:01:19.615Z,2.85
2022-11-22T20:03:50.419Z,2.40
2022-11-22T20:06:20.237Z,2.30
2022-11-22T20:08:47.081Z,2.40
2022-11-22T20:11:16.434Z,2.80
2022-11-22T20:13:46.289Z,2.78
2022-11-22T20:16:24.776Z,2.90
2022-11-22T20:18:59.769Z,2.60
2022-11-22T20:21:29.127Z,2.92
2022-11-22T20:23:56.909Z,3.05
2022-11-22T20:26:25.183Z,2.70
2022-11-22T20:29:04.952Z,3.08
2022-11-22T20:31:33.720Z,2.75
2022-11-22T20:34:01.669Z,2.15
2022-11-22T20:36:30.669Z,2.58
2022-11-22T20:38:58.098Z,2.90
2022-11-22T20:41:27.703Z,3.10
2022-11-22T20:43:55.383Z,2.47
2022-11-22T20:46:24.340Z,2.58
2022-11-22T20:48:54.890Z,3.03
2022-11-22T20:51:24.337Z,4.40
2022-11-22T20:53:51.585Z,3.83
2022-11-22T20:56:18.945Z,2.55
2022-11-22T20:58:45.900Z,2.65
2022-11-22T21:01:21.464Z,3.60
2022-11-22T21:03:48.830Z,4.22
2022-11-22T21:06:17.461Z,3.65
2022-11-22T21:08:45.858Z,6.22
2022-11-22T21:11:21.900Z,5.93
2022-11-22T21:13:49.237Z,7.38
2022-11-22T21:16:24.790Z,3.90
2022-11-22T21:18:55.855Z,6.95
2022-11-22T21:21:24.347Z,7.75
2022-11-22T21:23:53.478Z,6.57
2022-11-22T21:26:21.443Z,6.45
2022-11-22T21:28:48.817Z,3.38
2022-11-22T21:31:16.020Z,2.90
2022-11-22T21:33:42.982Z,2.83
2022-11-22T21:36:10.048Z,2.30
2022-11-22T21:38:38.760Z,2.15
2022-11-22T21:41:37.671Z,2.00
2022-11-22T21:43:56.589Z,2.45
2022-11-22T21:46:24.289Z,3.03
2022-11-22T21:48:51.910Z,2.85
2022-11-22T21:51:18.924Z,2.75
2022-11-22T21:53:45.917Z,3.15
2022-11-22T21:56:13.017Z,3.05
2022-11-22T21:58:39.874Z,2.38
2022-11-22T22:01:13.828Z,2.80
2022-11-22T22:03:41.263Z,2.63
2022-11-22T22:06:08.429Z,2.67
2022-11-22T22:08:35.633Z,2.72
2022-11-22T22:11:05.098Z,3.08
2022-11-22T22:13:32.594Z,2.60
2022-11-22T22:16:03.466Z,3.08
2022-11-22T22:18:35.173Z,2.50
2022-11-22T22:21:07.174Z,2.30
2022-11-22T22:23:35.248Z,2.40
2022-11-22T22:26:05.777Z,2.63
2022-11-22T22:28:35.625Z,2.50
2022-11-22T22:31:11.142Z,2.42
2022-11-22T22:33:40.089Z,2.55
2022-11-22T22:36:08.404Z,2.50
2022-11-22T22:38:35.554Z,2.00
2022-11-22T22:41:04.438Z,2.60
2022-11-22T22:43:33.585Z,2.35
2022-11-22T22:46:10.932Z,2.53
2022-11-22T22:48:37.822Z,2.70
2022-11-22T22:51:19.330Z,3.08
2022-11-22T22:53:47.272Z,2.40
2022-11-22T22:56:15.593Z,2.30
2022-11-22T22:58:42.715Z,2.40
2022-11-22T23:01:12.143Z,2.10
2022-11-22T23:03:39.126Z,2.35
2022-11-22T23:06:07.867Z,2.00
2022-11-22T23:08:35.621Z,2.10
2022-11-22T23:11:12.322Z,2.10
2022-11-22T23:13:42.003Z,2.10
2022-11-22T23:16:12.020Z,1.85
2022-11-22T23:18:42.144Z,2.03
2022-11-22T23:21:12.967Z,2.22
2022-11-22T23:23:40.014Z,2.22
2022-11-22T23:26:11.685Z,1.67
2022-11-22T23:28:38.892Z,1.95
2022-11-22T23:31:05.784Z,2.00
2022-11-22T23:33:32.585Z,2.28
2022-11-22T23:36:06.991Z,2.00
2022-11-22T23:38:34.479Z,1.90
2022-11-22T23:41:01.703Z,2.38
2022-11-22T23:43:29.525Z,1.83
2022-11-22T23:45:58.623Z,2.13
2022-11-22T23:48:26.489Z,2.55
2022-11-22T23:50:53.548Z,2.17
2022-11-22T23:53:20.578Z,1.88
2022-11-22T23:55:47.369Z,2.20
2022-11-22T23:58:14.169Z,2.15
